Tusket, Canada
Current Conditions -  °F | °C
As of 2:00 PM on Monday 26 Jan 2015 (Local Time) from CYQI Reporting Station
Overcast Overcast  
Wind Chill: 14°   Ceiling: 25000
Heat Index: 21°   Visibility: 15mi
Dew Point:   Wind: 6mph
Humidity: 58%   Direction: 60°ENE
Pressure: 30.15"   Gusts: NA
Location:  43.86°N, 65.98°W
Report Text: CYQI 261800Z 06005KT 360V100 15SM FEW025 OVC250 M06/M13 A3015 RMK SC1CI7 SLP211
Loading
Personal Weather Stations






























Interactive Weather Map New forecast layout! Learn more

10-Day Weather Forecast

Advertisements
Track Severe Weather on mobile